sensor_id;sensor_type;location;lat;lon;timestamp;P1;durP1;ratioP1;P2;durP2;ratioP2
21645;SDS011;10984;45.712;4.800;2022-07-18T00:01:45;3.08;;;1.75;;
21645;SDS011;10984;45.712;4.800;2022-07-18T00:04:11;3.63;;;1.90;;
21645;SDS011;10984;45.712;4.800;2022-07-18T00:06:37;3.58;;;1.70;;
21645;SDS011;10984;45.712;4.800;2022-07-18T00:09:02;2.67;;;1.65;;
21645;SDS011;10984;45.712;4.800;2022-07-18T00:11:29;4.15;;;2.10;;
21645;SDS011;10984;45.712;4.800;2022-07-18T00:13:54;3.60;;;1.73;;
21645;SDS011;10984;45.712;4.800;2022-07-18T00:16:21;3.45;;;1.85;;
21645;SDS011;10984;45.712;4.800;2022-07-18T00:18:48;4.88;;;2.30;;
21645;SDS011;10984;45.712;4.800;2022-07-18T00:21:14;4.40;;;1.90;;
21645;SDS011;10984;45.712;4.800;2022-07-18T00:23:40;3.30;;;1.70;;
21645;SDS011;10984;45.712;4.800;2022-07-18T00:26:06;2.97;;;1.75;;
21645;SDS011;10984;45.712;4.800;2022-07-18T00:28:31;4.15;;;1.70;;
21645;SDS011;10984;45.712;4.800;2022-07-18T00:30:57;3.40;;;1.50;;
21645;SDS011;10984;45.712;4.800;2022-07-18T00:33:23;3.33;;;1.77;;
21645;SDS011;10984;45.712;4.800;2022-07-18T00:35:49;2.95;;;1.55;;
21645;SDS011;10984;45.712;4.800;2022-07-18T00:38:14;3.72;;;1.67;;
21645;SDS011;10984;45.712;4.800;2022-07-18T00:40:40;3.03;;;1.80;;
21645;SDS011;10984;45.712;4.800;2022-07-18T00:43:06;3.60;;;1.73;;
21645;SDS011;10984;45.712;4.800;2022-07-18T00:45:32;3.17;;;1.90;;
21645;SDS011;10984;45.712;4.800;2022-07-18T00:47:57;4.18;;;1.92;;
21645;SDS011;10984;45.712;4.800;2022-07-18T00:50:23;3.53;;;1.88;;
21645;SDS011;10984;45.712;4.800;2022-07-18T00:52:49;3.47;;;1.73;;
21645;SDS011;10984;45.712;4.800;2022-07-18T00:55:16;3.72;;;1.67;;
21645;SDS011;10984;45.712;4.800;2022-07-18T00:57:42;2.95;;;1.50;;
21645;SDS011;10984;45.712;4.800;2022-07-18T01:00:08;2.83;;;1.40;;
21645;SDS011;10984;45.712;4.800;2022-07-18T01:02:55;2.85;;;1.50;;
21645;SDS011;10984;45.712;4.800;2022-07-18T01:05:21;2.78;;;1.63;;
21645;SDS011;10984;45.712;4.800;2022-07-18T01:07:47;3.63;;;2.03;;
21645;SDS011;10984;45.712;4.800;2022-07-18T01:10:14;3.30;;;1.65;;
21645;SDS011;10984;45.712;4.800;2022-07-18T01:12:39;6.57;;;2.00;;
21645;SDS011;10984;45.712;4.800;2022-07-18T01:15:05;2.83;;;1.63;;
21645;SDS011;10984;45.712;4.800;2022-07-18T01:17:32;2.45;;;1.50;;
21645;SDS011;10984;45.712;4.800;2022-07-18T01:19:58;2.83;;;1.60;;
21645;SDS011;10984;45.712;4.800;2022-07-18T01:22:23;4.30;;;1.35;;
21645;SDS011;10984;45.712;4.800;2022-07-18T01:24:49;3.10;;;1.55;;
21645;SDS011;10984;45.712;4.800;2022-07-18T01:27:16;3.75;;;1.30;;
21645;SDS011;10984;45.712;4.800;2022-07-18T01:29:44;3.83;;;2.10;;
21645;SDS011;10984;45.712;4.800;2022-07-18T01:32:10;4.53;;;1.42;;
21645;SDS011;10984;45.712;4.800;2022-07-18T01:34:36;3.08;;;1.70;;
21645;SDS011;10984;45.712;4.800;2022-07-18T01:37:03;2.63;;;1.60;;
21645;SDS011;10984;45.712;4.800;2022-07-18T01:39:29;2.97;;;1.60;;
21645;SDS011;10984;45.712;4.800;2022-07-18T01:41:59;3.17;;;1.65;;
21645;SDS011;10984;45.712;4.800;2022-07-18T01:44:27;3.08;;;1.73;;
21645;SDS011;10984;45.712;4.800;2022-07-18T01:46:53;2.90;;;1.70;;
21645;SDS011;10984;45.712;4.800;2022-07-18T01:49:19;4.15;;;2.33;;
21645;SDS011;10984;45.712;4.800;2022-07-18T01:51:46;3.03;;;1.77;;
21645;SDS011;10984;45.712;4.800;2022-07-18T01:54:12;4.60;;;1.92;;
21645;SDS011;10984;45.712;4.800;2022-07-18T01:56:38;2.85;;;1.77;;
21645;SDS011;10984;45.712;4.800;2022-07-18T01:59:04;2.95;;;1.70;;
21645;SDS011;10984;45.712;4.800;2022-07-18T02:01:29;3.83;;;1.90;;
21645;SDS011;10984;45.712;4.800;2022-07-18T02:03:55;5.00;;;2.17;;
21645;SDS011;10984;45.712;4.800;2022-07-18T02:06:21;3.22;;;1.70;;
21645;SDS011;10984;45.712;4.800;2022-07-18T02:08:46;3.35;;;1.80;;
21645;SDS011;10984;45.712;4.800;2022-07-18T02:11:12;2.95;;;1.67;;
21645;SDS011;10984;45.712;4.800;2022-07-18T02:13:38;4.03;;;2.17;;
21645;SDS011;10984;45.712;4.800;2022-07-18T02:16:04;3.03;;;1.67;;
21645;SDS011;10984;45.712;4.800;2022-07-18T02:18:29;4.05;;;1.98;;
21645;SDS011;10984;45.712;4.800;2022-07-18T02:20:58;3.42;;;1.80;;
21645;SDS011;10984;45.712;4.800;2022-07-18T02:23:43;3.03;;;1.70;;
21645;SDS011;10984;45.712;4.800;2022-07-18T02:26:09;3.47;;;1.90;;
21645;SDS011;10984;45.712;4.800;2022-07-18T02:28:36;4.55;;;1.70;;
21645;SDS011;10984;45.712;4.800;2022-07-18T02:31:02;4.55;;;1.95;;
21645;SDS011;10984;45.712;4.800;2022-07-18T02:33:29;7.05;;;1.80;;
21645;SDS011;10984;45.712;4.800;2022-07-18T02:35:55;3.33;;;1.95;;
21645;SDS011;10984;45.712;4.800;2022-07-18T02:38:21;3.33;;;1.80;;
21645;SDS011;10984;45.712;4.800;2022-07-18T02:40:46;5.30;;;1.80;;
21645;SDS011;10984;45.712;4.800;2022-07-18T02:43:12;3.65;;;1.90;;
21645;SDS011;10984;45.712;4.800;2022-07-18T02:45:38;2.83;;;1.73;;
21645;SDS011;10984;45.712;4.800;2022-07-18T02:48:03;3.42;;;1.65;;
21645;SDS011;10984;45.712;4.800;2022-07-18T02:50:29;2.50;;;1.42;;
21645;SDS011;10984;45.712;4.800;2022-07-18T02:52:55;3.38;;;1.85;;
21645;SDS011;10984;45.712;4.800;2022-07-18T02:55:22;4.30;;;2.30;;
21645;SDS011;10984;45.712;4.800;2022-07-18T02:57:48;3.17;;;1.60;;
21645;SDS011;10984;45.712;4.800;2022-07-18T03:00:15;2.47;;;1.40;;
21645;SDS011;10984;45.712;4.800;2022-07-18T03:02:42;2.58;;;1.35;;
21645;SDS011;10984;45.712;4.800;2022-07-18T03:05:09;5.10;;;1.83;;
21645;SDS011;10984;45.712;4.800;2022-07-18T03:07:35;3.17;;;1.60;;
21645;SDS011;10984;45.712;4.800;2022-07-18T03:10:01;3.30;;;2.15;;
21645;SDS011;10984;45.712;4.800;2022-07-18T03:12:27;2.42;;;1.50;;
21645;SDS011;10984;45.712;4.800;2022-07-18T03:14:53;3.00;;;1.88;;
21645;SDS011;10984;45.712;4.800;2022-07-18T03:17:19;3.00;;;1.77;;
21645;SDS011;10984;45.712;4.800;2022-07-18T03:19:45;3.63;;;1.98;;
21645;SDS011;10984;45.712;4.800;2022-07-18T03:22:10;3.35;;;1.48;;
21645;SDS011;10984;45.712;4.800;2022-07-18T03:24:36;3.42;;;1.88;;
21645;SDS011;10984;45.712;4.800;2022-07-18T03:27:02;4.10;;;1.67;;
21645;SDS011;10984;45.712;4.800;2022-07-18T03:29:27;2.65;;;1.52;;
21645;SDS011;10984;45.712;4.800;2022-07-18T03:31:53;5.53;;;1.92;;
21645;SDS011;10984;45.712;4.800;2022-07-18T03:34:19;2.97;;;1.70;;
21645;SDS011;10984;45.712;4.800;2022-07-18T03:36:44;4.03;;;1.80;;
21645;SDS011;10984;45.712;4.800;2022-07-18T03:39:11;2.88;;;1.60;;
21645;SDS011;10984;45.712;4.800;2022-07-18T03:41:37;4.40;;;1.70;;
21645;SDS011;10984;45.712;4.800;2022-07-18T03:44:04;3.22;;;1.70;;
21645;SDS011;10984;45.712;4.800;2022-07-18T03:46:30;3.78;;;1.77;;
21645;SDS011;10984;45.712;4.800;2022-07-18T03:48:56;2.83;;;1.70;;
21645;SDS011;10984;45.712;4.800;2022-07-18T03:51:22;4.32;;;2.17;;
21645;SDS011;10984;45.712;4.800;2022-07-18T03:53:48;3.13;;;1.90;;
21645;SDS011;10984;45.712;4.800;2022-07-18T03:56:14;3.83;;;2.20;;
21645;SDS011;10984;45.712;4.800;2022-07-18T03:58:40;3.05;;;1.73;;
21645;SDS011;10984;45.712;4.800;2022-07-18T04:01:05;2.70;;;1.50;;
21645;SDS011;10984;45.712;4.800;2022-07-18T04:03:31;5.15;;;1.90;;
21645;SDS011;10984;45.712;4.800;2022-07-18T04:05:57;5.40;;;1.80;;
21645;SDS011;10984;45.712;4.800;2022-07-18T04:08:23;3.65;;;1.83;;
21645;SDS011;10984;45.712;4.800;2022-07-18T04:10:48;3.30;;;1.70;;
21645;SDS011;10984;45.712;4.800;2022-07-18T04:13:14;3.28;;;2.00;;
21645;SDS011;10984;45.712;4.800;2022-07-18T04:15:40;3.95;;;2.17;;
21645;SDS011;10984;45.712;4.800;2022-07-18T04:18:07;3.15;;;1.98;;
21645;SDS011;10984;45.712;4.800;2022-07-18T04:20:34;3.15;;;1.85;;
21645;SDS011;10984;45.712;4.800;2022-07-18T04:23:01;3.58;;;2.05;;
21645;SDS011;10984;45.712;4.800;2022-07-18T04:25:32;2.92;;;1.60;;
21645;SDS011;10984;45.712;4.800;2022-07-18T04:28:17;3.78;;;2.00;;
21645;SDS011;10984;45.712;4.800;2022-07-18T04:30:43;4.93;;;2.05;;
21645;SDS011;10984;45.712;4.800;2022-07-18T04:33:09;4.25;;;1.92;;
21645;SDS011;10984;45.712;4.800;2022-07-18T04:35:36;4.22;;;1.73;;
21645;SDS011;10984;45.712;4.800;2022-07-18T04:38:04;2.65;;;1.52;;
21645;SDS011;10984;45.712;4.800;2022-07-18T04:40:31;4.30;;;1.98;;
21645;SDS011;10984;45.712;4.800;2022-07-18T04:42:57;3.25;;;1.98;;
21645;SDS011;10984;45.712;4.800;2022-07-18T04:45:23;3.65;;;2.00;;
21645;SDS011;10984;45.712;4.800;2022-07-18T04:47:49;6.50;;;1.60;;
21645;SDS011;10984;45.712;4.800;2022-07-18T04:50:15;3.08;;;1.70;;
21645;SDS011;10984;45.712;4.800;2022-07-18T04:52:42;3.40;;;2.00;;
21645;SDS011;10984;45.712;4.800;2022-07-18T04:55:10;3.03;;;1.60;;
21645;SDS011;10984;45.712;4.800;2022-07-18T04:57:37;2.72;;;1.58;;
21645;SDS011;10984;45.712;4.800;2022-07-18T05:00:04;2.80;;;1.73;;
21645;SDS011;10984;45.712;4.800;2022-07-18T05:02:38;3.58;;;2.10;;
21645;SDS011;10984;45.712;4.800;2022-07-18T05:05:05;5.80;;;2.10;;
21645;SDS011;10984;45.712;4.800;2022-07-18T05:07:31;3.50;;;1.70;;
21645;SDS011;10984;45.712;4.800;2022-07-18T05:09:57;3.30;;;1.80;;
21645;SDS011;10984;45.712;4.800;2022-07-18T05:12:22;3.22;;;1.65;;
21645;SDS011;10984;45.712;4.800;2022-07-18T05:14:48;3.83;;;1.63;;
21645;SDS011;10984;45.712;4.800;2022-07-18T05:17:15;3.50;;;1.75;;
21645;SDS011;10984;45.712;4.800;2022-07-18T05:19:41;3.78;;;2.30;;
21645;SDS011;10984;45.712;4.800;2022-07-18T05:22:06;3.58;;;1.60;;
21645;SDS011;10984;45.712;4.800;2022-07-18T05:24:32;2.63;;;1.55;;
21645;SDS011;10984;45.712;4.800;2022-07-18T05:26:57;3.90;;;1.60;;
21645;SDS011;10984;45.712;4.800;2022-07-18T05:29:23;3.67;;;1.80;;
21645;SDS011;10984;45.712;4.800;2022-07-18T05:31:49;2.70;;;1.77;;
21645;SDS011;10984;45.712;4.800;2022-07-18T05:34:15;3.13;;;1.50;;
21645;SDS011;10984;45.712;4.800;2022-07-18T05:36:40;4.47;;;1.60;;
21645;SDS011;10984;45.712;4.800;2022-07-18T05:39:06;3.28;;;1.73;;
21645;SDS011;10984;45.712;4.800;2022-07-18T05:41:34;4.75;;;1.55;;
21645;SDS011;10984;45.712;4.800;2022-07-18T05:44:00;3.15;;;1.65;;
21645;SDS011;10984;45.712;4.800;2022-07-18T05:46:25;3.85;;;1.58;;
21645;SDS011;10984;45.712;4.800;2022-07-18T05:48:51;4.28;;;1.90;;
21645;SDS011;10984;45.712;4.800;2022-07-18T05:51:17;2.85;;;1.60;;
21645;SDS011;10984;45.712;4.800;2022-07-18T05:53:44;3.10;;;1.70;;
21645;SDS011;10984;45.712;4.800;2022-07-18T05:56:09;2.58;;;1.40;;
21645;SDS011;10984;45.712;4.800;2022-07-18T05:58:35;2.90;;;1.60;;
21645;SDS011;10984;45.712;4.800;2022-07-18T06:01:01;2.80;;;1.50;;
21645;SDS011;10984;45.712;4.800;2022-07-18T06:03:26;2.75;;;1.50;;
21645;SDS011;10984;45.712;4.800;2022-07-18T06:05:52;2.65;;;1.73;;
21645;SDS011;10984;45.712;4.800;2022-07-18T06:08:18;3.53;;;1.60;;
21645;SDS011;10984;45.712;4.800;2022-07-18T06:10:43;3.25;;;1.50;;
21645;SDS011;10984;45.712;4.800;2022-07-18T06:13:09;3.47;;;1.95;;
21645;SDS011;10984;45.712;4.800;2022-07-18T06:15:36;3.83;;;1.80;;
21645;SDS011;10984;45.712;4.800;2022-07-18T06:18:01;4.28;;;1.98;;
21645;SDS011;10984;45.712;4.800;2022-07-18T06:20:27;4.65;;;2.20;;
21645;SDS011;10984;45.712;4.800;2022-07-18T06:22:53;3.85;;;2.28;;
21645;SDS011;10984;45.712;4.800;2022-07-18T06:25:18;6.18;;;2.20;;
21645;SDS011;10984;45.712;4.800;2022-07-18T06:27:44;3.55;;;2.03;;
21645;SDS011;10984;45.712;4.800;2022-07-18T06:30:10;5.70;;;2.42;;
21645;SDS011;10984;45.712;4.800;2022-07-18T06:32:36;4.30;;;2.42;;
21645;SDS011;10984;45.712;4.800;2022-07-18T06:35:02;5.40;;;2.35;;
21645;SDS011;10984;45.712;4.800;2022-07-18T06:37:28;3.80;;;1.95;;
21645;SDS011;10984;45.712;4.800;2022-07-18T06:39:54;4.55;;;2.30;;
21645;SDS011;10984;45.712;4.800;2022-07-18T06:42:20;4.10;;;2.10;;
21645;SDS011;10984;45.712;4.800;2022-07-18T06:44:45;4.47;;;2.05;;
21645;SDS011;10984;45.712;4.800;2022-07-18T06:47:11;5.60;;;2.60;;
21645;SDS011;10984;45.712;4.800;2022-07-18T06:49:37;6.85;;;2.88;;
21645;SDS011;10984;45.712;4.800;2022-07-18T06:52:02;4.82;;;2.50;;
21645;SDS011;10984;45.712;4.800;2022-07-18T06:54:28;4.65;;;2.38;;
21645;SDS011;10984;45.712;4.800;2022-07-18T06:56:55;4.55;;;2.88;;
21645;SDS011;10984;45.712;4.800;2022-07-18T06:59:20;9.32;;;3.60;;
21645;SDS011;10984;45.712;4.800;2022-07-18T07:01:46;5.13;;;2.45;;
21645;SDS011;10984;45.712;4.800;2022-07-18T07:04:12;4.68;;;2.47;;
21645;SDS011;10984;45.712;4.800;2022-07-18T07:06:37;5.53;;;2.95;;
21645;SDS011;10984;45.712;4.800;2022-07-18T07:09:04;7.18;;;2.38;;
21645;SDS011;10984;45.712;4.800;2022-07-18T07:11:30;8.30;;;3.38;;
21645;SDS011;10984;45.712;4.800;2022-07-18T07:13:56;5.13;;;2.40;;
21645;SDS011;10984;45.712;4.800;2022-07-18T07:16:21;3.47;;;2.15;;
21645;SDS011;10984;45.712;4.800;2022-07-18T07:18:47;3.47;;;2.10;;
21645;SDS011;10984;45.712;4.800;2022-07-18T07:21:13;4.53;;;2.05;;
21645;SDS011;10984;45.712;4.800;2022-07-18T07:23:38;4.75;;;2.53;;
21645;SDS011;10984;45.712;4.800;2022-07-18T07:26:06;5.63;;;2.00;;
21645;SDS011;10984;45.712;4.800;2022-07-18T07:28:32;7.72;;;3.20;;
21645;SDS011;10984;45.712;4.800;2022-07-18T07:30:57;6.05;;;2.33;;
21645;SDS011;10984;45.712;4.800;2022-07-18T07:33:23;4.85;;;1.85;;
21645;SDS011;10984;45.712;4.800;2022-07-18T07:35:49;4.65;;;2.10;;
21645;SDS011;10984;45.712;4.800;2022-07-18T07:38:14;4.60;;;2.38;;
21645;SDS011;10984;45.712;4.800;2022-07-18T07:40:59;4.50;;;2.28;;
21645;SDS011;10984;45.712;4.800;2022-07-18T07:43:26;7.20;;;2.35;;
21645;SDS011;10984;45.712;4.800;2022-07-18T07:45:52;5.32;;;2.40;;
21645;SDS011;10984;45.712;4.800;2022-07-18T07:48:18;5.03;;;2.50;;
21645;SDS011;10984;45.712;4.800;2022-07-18T07:50:45;3.92;;;2.05;;
21645;SDS011;10984;45.712;4.800;2022-07-18T07:53:10;4.47;;;2.13;;
21645;SDS011;10984;45.712;4.800;2022-07-18T07:55:36;3.78;;;2.13;;
21645;SDS011;10984;45.712;4.800;2022-07-18T07:58:01;5.53;;;2.42;;
21645;SDS011;10984;45.712;4.800;2022-07-18T08:00:30;3.88;;;2.53;;
21645;SDS011;10984;45.712;4.800;2022-07-18T08:02:56;4.28;;;1.95;;
21645;SDS011;10984;45.712;4.800;2022-07-18T08:05:27;4.57;;;2.50;;
21645;SDS011;10984;45.712;4.800;2022-07-18T08:07:54;13.25;;;3.38;;
21645;SDS011;10984;45.712;4.800;2022-07-18T08:10:20;4.53;;;2.60;;
21645;SDS011;10984;45.712;4.800;2022-07-18T08:12:46;5.82;;;2.60;;
21645;SDS011;10984;45.712;4.800;2022-07-18T08:15:12;6.38;;;3.08;;
21645;SDS011;10984;45.712;4.800;2022-07-18T08:17:38;5.28;;;2.97;;
21645;SDS011;10984;45.712;4.800;2022-07-18T08:20:04;3.88;;;2.58;;
21645;SDS011;10984;45.712;4.800;2022-07-18T08:22:30;4.10;;;2.55;;
21645;SDS011;10984;45.712;4.800;2022-07-18T08:24:56;5.57;;;2.85;;
21645;SDS011;10984;45.712;4.800;2022-07-18T08:27:22;6.80;;;3.20;;
21645;SDS011;10984;45.712;4.800;2022-07-18T08:29:47;7.22;;;3.30;;
21645;SDS011;10984;45.712;4.800;2022-07-18T08:32:13;6.90;;;2.53;;
21645;SDS011;10984;45.712;4.800;2022-07-18T08:34:39;5.50;;;3.08;;
21645;SDS011;10984;45.712;4.800;2022-07-18T08:37:05;8.27;;;3.45;;
21645;SDS011;10984;45.712;4.800;2022-07-18T08:39:31;7.07;;;3.08;;
21645;SDS011;10984;45.712;4.800;2022-07-18T08:41:57;5.10;;;2.90;;
21645;SDS011;10984;45.712;4.800;2022-07-18T08:44:26;4.65;;;3.10;;
21645;SDS011;10984;45.712;4.800;2022-07-18T08:46:53;5.20;;;2.65;;
21645;SDS011;10984;45.712;4.800;2022-07-18T08:49:21;7.40;;;2.90;;
21645;SDS011;10984;45.712;4.800;2022-07-18T08:51:47;4.15;;;2.60;;
21645;SDS011;10984;45.712;4.800;2022-07-18T08:54:13;13.00;;;3.40;;
21645;SDS011;10984;45.712;4.800;2022-07-18T08:56:40;6.03;;;2.92;;
21645;SDS011;10984;45.712;4.800;2022-07-18T08:59:06;7.20;;;2.80;;
21645;SDS011;10984;45.712;4.800;2022-07-18T09:01:32;6.28;;;2.80;;
21645;SDS011;10984;45.712;4.800;2022-07-18T09:03:58;9.05;;;2.85;;
21645;SDS011;10984;45.712;4.800;2022-07-18T09:09:28;9.82;;;3.28;;
21645;SDS011;10984;45.712;4.800;2022-07-18T09:17:26;7.07;;;3.53;;
21645;SDS011;10984;45.712;4.800;2022-07-18T09:20:11;8.60;;;2.90;;
21645;SDS011;10984;45.712;4.800;2022-07-18T09:25:37;7.20;;;3.50;;
21645;SDS011;10984;45.712;4.800;2022-07-18T09:28:04;5.85;;;2.90;;
21645;SDS011;10984;45.712;4.800;2022-07-18T09:30:34;5.53;;;3.42;;
21645;SDS011;10984;45.712;4.800;2022-07-18T09:38:30;5.63;;;3.10;;
21645;SDS011;10984;45.712;4.800;2022-07-18T09:40:56;5.90;;;2.70;;
21645;SDS011;10984;45.712;4.800;2022-07-18T09:43:23;5.72;;;2.78;;
21645;SDS011;10984;45.712;4.800;2022-07-18T09:45:51;6.00;;;3.25;;
21645;SDS011;10984;45.712;4.800;2022-07-18T09:51:04;9.30;;;2.72;;
21645;SDS011;10984;45.712;4.800;2022-07-18T09:59:04;6.88;;;3.00;;
21645;SDS011;10984;45.712;4.800;2022-07-18T10:01:32;6.55;;;3.33;;
21645;SDS011;10984;45.712;4.800;2022-07-18T10:03:58;5.95;;;2.60;;
21645;SDS011;10984;45.712;4.800;2022-07-18T10:06:25;5.90;;;2.88;;
21645;SDS011;10984;45.712;4.800;2022-07-18T10:08:51;4.03;;;2.70;;
21645;SDS011;10984;45.712;4.800;2022-07-18T10:11:20;6.30;;;2.70;;
21645;SDS011;10984;45.712;4.800;2022-07-18T10:13:47;6.80;;;3.05;;
21645;SDS011;10984;45.712;4.800;2022-07-18T10:16:15;4.50;;;2.95;;
21645;SDS011;10984;45.712;4.800;2022-07-18T10:18:40;4.28;;;2.50;;
21645;SDS011;10984;45.712;4.800;2022-07-18T10:21:07;4.00;;;2.38;;
21645;SDS011;10984;45.712;4.800;2022-07-18T10:23:35;5.05;;;2.60;;
21645;SDS011;10984;45.712;4.800;2022-07-18T10:26:06;4.22;;;2.30;;
21645;SDS011;10984;45.712;4.800;2022-07-18T10:28:35;6.97;;;2.78;;
21645;SDS011;10984;45.712;4.800;2022-07-18T10:33:46;5.78;;;2.67;;
21645;SDS011;10984;45.712;4.800;2022-07-18T10:47:11;7.35;;;3.28;;
21645;SDS011;10984;45.712;4.800;2022-07-18T11:03:04;4.30;;;2.50;;
21645;SDS011;10984;45.712;4.800;2022-07-18T11:16:15;3.88;;;2.58;;
21645;SDS011;10984;45.712;4.800;2022-07-18T11:24:12;4.82;;;2.03;;
21645;SDS011;10984;45.712;4.800;2022-07-18T11:26:42;5.28;;;2.50;;
21645;SDS011;10984;45.712;4.800;2022-07-18T11:29:13;3.17;;;1.75;;
21645;SDS011;10984;45.712;4.800;2022-07-18T11:31:51;3.78;;;2.47;;
21645;SDS011;10984;45.712;4.800;2022-07-18T11:34:20;4.43;;;2.50;;
21645;SDS011;10984;45.712;4.800;2022-07-18T11:36:47;7.05;;;2.20;;
21645;SDS011;10984;45.712;4.800;2022-07-18T11:39:14;5.13;;;2.60;;
21645;SDS011;10984;45.712;4.800;2022-07-18T11:41:40;3.70;;;2.20;;
21645;SDS011;10984;45.712;4.800;2022-07-18T11:47:10;3.70;;;2.05;;
21645;SDS011;10984;45.712;4.800;2022-07-18T11:49:37;3.10;;;1.92;;
21645;SDS011;10984;45.712;4.800;2022-07-18T11:52:04;4.07;;;2.42;;
21645;SDS011;10984;45.712;4.800;2022-07-18T11:54:30;5.65;;;2.33;;
21645;SDS011;10984;45.712;4.800;2022-07-18T11:56:57;7.03;;;2.45;;
21645;SDS011;10984;45.712;4.800;2022-07-18T11:59:34;5.47;;;2.30;;
21645;SDS011;10984;45.712;4.800;2022-07-18T12:02:18;3.10;;;1.98;;
21645;SDS011;10984;45.712;4.800;2022-07-18T12:04:45;2.92;;;1.95;;
21645;SDS011;10984;45.712;4.800;2022-07-18T12:09:55;3.95;;;1.98;;
21645;SDS011;10984;45.712;4.800;2022-07-18T12:12:22;3.53;;;2.30;;
21645;SDS011;10984;45.712;4.800;2022-07-18T12:17:41;3.58;;;2.03;;
21645;SDS011;10984;45.712;4.800;2022-07-18T12:20:13;2.83;;;1.60;;
21645;SDS011;10984;45.712;4.800;2022-07-18T12:25:41;4.47;;;2.13;;
21645;SDS011;10984;45.712;4.800;2022-07-18T12:30:53;2.88;;;1.63;;
21645;SDS011;10984;45.712;4.800;2022-07-18T12:33:19;2.95;;;1.70;;
21645;SDS011;10984;45.712;4.800;2022-07-18T12:35:48;2.85;;;1.85;;
21645;SDS011;10984;45.712;4.800;2022-07-18T12:38:37;3.42;;;1.50;;
21645;SDS011;10984;45.712;4.800;2022-07-18T12:41:03;5.65;;;1.90;;
21645;SDS011;10984;45.712;4.800;2022-07-18T12:46:13;4.03;;;1.55;;
21645;SDS011;10984;45.712;4.800;2022-07-18T12:48:39;3.15;;;1.70;;
21645;SDS011;10984;45.712;4.800;2022-07-18T12:53:54;1.80;;;1.10;;
21645;SDS011;10984;45.712;4.800;2022-07-18T12:56:20;2.70;;;1.30;;
21645;SDS011;10984;45.712;4.800;2022-07-18T12:58:45;1.70;;;0.95;;
21645;SDS011;10984;45.712;4.800;2022-07-18T13:01:11;4.78;;;1.20;;
21645;SDS011;10984;45.712;4.800;2022-07-18T13:03:37;4.40;;;1.90;;
21645;SDS011;10984;45.712;4.800;2022-07-18T13:06:05;7.28;;;1.70;;
21645;SDS011;10984;45.712;4.800;2022-07-18T13:08:31;3.20;;;1.60;;
21645;SDS011;10984;45.712;4.800;2022-07-18T13:13:41;4.22;;;2.20;;
21645;SDS011;10984;45.712;4.800;2022-07-18T13:16:07;2.80;;;1.70;;
21645;SDS011;10984;45.712;4.800;2022-07-18T13:18:32;4.03;;;1.88;;
21645;SDS011;10984;45.712;4.800;2022-07-18T13:20:58;5.75;;;2.40;;
21645;SDS011;10984;45.712;4.800;2022-07-18T13:23:24;5.40;;;2.47;;
21645;SDS011;10984;45.712;4.800;2022-07-18T13:25:49;3.38;;;2.20;;
21645;SDS011;10984;45.712;4.800;2022-07-18T13:28:15;5.25;;;2.60;;
21645;SDS011;10984;45.712;4.800;2022-07-18T13:30:41;3.72;;;1.80;;
21645;SDS011;10984;45.712;4.800;2022-07-18T13:33:06;2.95;;;2.15;;
21645;SDS011;10984;45.712;4.800;2022-07-18T13:35:32;4.30;;;2.13;;
21645;SDS011;10984;45.712;4.800;2022-07-18T13:37:59;4.57;;;2.13;;
21645;SDS011;10984;45.712;4.800;2022-07-18T13:40:24;3.25;;;1.90;;
21645;SDS011;10984;45.712;4.800;2022-07-18T13:42:50;5.68;;;2.40;;
21645;SDS011;10984;45.712;4.800;2022-07-18T13:45:16;3.47;;;2.58;;
21645;SDS011;10984;45.712;4.800;2022-07-18T13:50:26;4.32;;;2.22;;
21645;SDS011;10984;45.712;4.800;2022-07-18T13:52:52;4.38;;;2.30;;
21645;SDS011;10984;45.712;4.800;2022-07-18T13:55:17;4.45;;;2.45;;
21645;SDS011;10984;45.712;4.800;2022-07-18T13:57:43;4.28;;;2.45;;
21645;SDS011;10984;45.712;4.800;2022-07-18T14:00:09;4.53;;;2.30;;
21645;SDS011;10984;45.712;4.800;2022-07-18T14:02:35;3.08;;;1.92;;
21645;SDS011;10984;45.712;4.800;2022-07-18T14:05:01;5.28;;;2.28;;
21645;SDS011;10984;45.712;4.800;2022-07-18T14:07:27;3.78;;;2.20;;
21645;SDS011;10984;45.712;4.800;2022-07-18T14:09:53;5.75;;;2.30;;
21645;SDS011;10984;45.712;4.800;2022-07-18T14:12:19;3.30;;;1.98;;
21645;SDS011;10984;45.712;4.800;2022-07-18T14:14:44;7.70;;;2.38;;
21645;SDS011;10984;45.712;4.800;2022-07-18T14:17:10;3.17;;;2.00;;
21645;SDS011;10984;45.712;4.800;2022-07-18T14:19:36;4.10;;;2.17;;
21645;SDS011;10984;45.712;4.800;2022-07-18T14:22:02;5.25;;;2.38;;
21645;SDS011;10984;45.712;4.800;2022-07-18T14:24:28;3.33;;;2.08;;
21645;SDS011;10984;45.712;4.800;2022-07-18T14:26:54;3.92;;;2.10;;
21645;SDS011;10984;45.712;4.800;2022-07-18T14:29:19;4.82;;;2.20;;
21645;SDS011;10984;45.712;4.800;2022-07-18T14:31:45;3.90;;;2.35;;
21645;SDS011;10984;45.712;4.800;2022-07-18T14:34:11;3.03;;;2.05;;
21645;SDS011;10984;45.712;4.800;2022-07-18T14:36:36;4.25;;;2.47;;
21645;SDS011;10984;45.712;4.800;2022-07-18T14:39:02;4.07;;;2.15;;
21645;SDS011;10984;45.712;4.800;2022-07-18T14:41:28;3.78;;;2.10;;
21645;SDS011;10984;45.712;4.800;2022-07-18T14:43:53;3.45;;;2.17;;
21645;SDS011;10984;45.712;4.800;2022-07-18T14:46:19;4.13;;;2.20;;
21645;SDS011;10984;45.712;4.800;2022-07-18T14:48:44;5.15;;;2.10;;
21645;SDS011;10984;45.712;4.800;2022-07-18T14:51:13;3.10;;;1.95;;
21645;SDS011;10984;45.712;4.800;2022-07-18T14:53:39;3.58;;;2.17;;
21645;SDS011;10984;45.712;4.800;2022-07-18T14:56:04;3.83;;;2.13;;
21645;SDS011;10984;45.712;4.800;2022-07-18T14:58:30;5.90;;;2.50;;
21645;SDS011;10984;45.712;4.800;2022-07-18T15:00:56;4.00;;;2.28;;
21645;SDS011;10984;45.712;4.800;2022-07-18T15:03:22;4.32;;;1.90;;
21645;SDS011;10984;45.712;4.800;2022-07-18T15:05:47;5.40;;;2.40;;
21645;SDS011;10984;45.712;4.800;2022-07-18T15:08:13;6.78;;;2.33;;
21645;SDS011;10984;45.712;4.800;2022-07-18T15:10:39;4.95;;;2.40;;
21645;SDS011;10984;45.712;4.800;2022-07-18T15:13:04;4.72;;;2.28;;
21645;SDS011;10984;45.712;4.800;2022-07-18T15:15:31;4.13;;;2.28;;
21645;SDS011;10984;45.712;4.800;2022-07-18T15:17:57;6.25;;;2.53;;
21645;SDS011;10984;45.712;4.800;2022-07-18T15:20:23;3.65;;;2.33;;
21645;SDS011;10984;45.712;4.800;2022-07-18T15:22:49;3.80;;;2.47;;
21645;SDS011;10984;45.712;4.800;2022-07-18T15:25:15;8.13;;;2.08;;
21645;SDS011;10984;45.712;4.800;2022-07-18T15:27:41;6.95;;;2.08;;
21645;SDS011;10984;45.712;4.800;2022-07-18T15:30:07;4.70;;;2.40;;
21645;SDS011;10984;45.712;4.800;2022-07-18T15:32:33;4.05;;;2.30;;
21645;SDS011;10984;45.712;4.800;2022-07-18T15:34:59;7.68;;;2.28;;
21645;SDS011;10984;45.712;4.800;2022-07-18T15:37:24;3.20;;;2.03;;
21645;SDS011;10984;45.712;4.800;2022-07-18T15:39:50;3.95;;;2.42;;
21645;SDS011;10984;45.712;4.800;2022-07-18T15:42:16;3.85;;;2.35;;
21645;SDS011;10984;45.712;4.800;2022-07-18T15:44:42;4.32;;;2.00;;
21645;SDS011;10984;45.712;4.800;2022-07-18T15:47:08;4.85;;;2.33;;
21645;SDS011;10984;45.712;4.800;2022-07-18T15:49:34;3.88;;;2.10;;
21645;SDS011;10984;45.712;4.800;2022-07-18T15:52:02;7.60;;;2.20;;
21645;SDS011;10984;45.712;4.800;2022-07-18T15:54:31;8.80;;;2.60;;
21645;SDS011;10984;45.712;4.800;2022-07-18T15:57:00;5.47;;;2.53;;
21645;SDS011;10984;45.712;4.800;2022-07-18T15:59:27;5.32;;;2.58;;
21645;SDS011;10984;45.712;4.800;2022-07-18T16:01:53;4.80;;;2.60;;
21645;SDS011;10984;45.712;4.800;2022-07-18T16:04:20;3.83;;;2.28;;
21645;SDS011;10984;45.712;4.800;2022-07-18T16:06:46;7.30;;;2.60;;
21645;SDS011;10984;45.712;4.800;2022-07-18T16:09:12;4.00;;;2.58;;
21645;SDS011;10984;45.712;4.800;2022-07-18T16:11:37;7.45;;;1.98;;
21645;SDS011;10984;45.712;4.800;2022-07-18T16:14:05;3.03;;;1.90;;
21645;SDS011;10984;45.712;4.800;2022-07-18T16:16:33;5.35;;;2.10;;
21645;SDS011;10984;45.712;4.800;2022-07-18T16:19:01;3.40;;;2.00;;